sensor_id;sensor_type;location;lat;lon;timestamp;pressure;altitude;pressure_sealevel;temperature;humidity
36980;BME280;22891;50.562;7.272;2022-09-02T00:01:25;101162.00;;;19.13;nan
36980;BME280;22891;50.562;7.272;2022-09-02T00:03:55;101153.00;;;19.21;nan
36980;BME280;22891;50.562;7.272;2022-09-02T00:06:22;101152.00;;;19.20;nan
36980;BME280;22891;50.562;7.272;2022-09-02T00:08:49;101154.00;;;19.05;nan
36980;BME280;22891;50.562;7.272;2022-09-02T00:11:19;101148.00;;;19.01;nan
36980;BME280;22891;50.562;7.272;2022-09-02T00:13:46;101148.00;;;18.98;nan
36980;BME280;22891;50.562;7.272;2022-09-02T00:16:13;101145.00;;;18.99;nan
36980;BME280;22891;50.562;7.272;2022-09-02T00:18:39;101143.00;;;18.95;nan
36980;BME280;22891;50.562;7.272;2022-09-02T00:21:06;101139.00;;;19.02;nan
36980;BME280;22891;50.562;7.272;2022-09-02T00:23:32;101149.00;;;19.02;nan
36980;BME280;22891;50.562;7.272;2022-09-02T00:25:59;101137.00;;;19.07;nan
36980;BME280;22891;50.562;7.272;2022-09-02T00:28:25;101137.00;;;19.04;nan
36980;BME280;22891;50.562;7.272;2022-09-02T00:30:52;101135.00;;;19.03;nan
36980;BME280;22891;50.562;7.272;2022-09-02T00:33:18;101132.00;;;18.98;nan
36980;BME280;22891;50.562;7.272;2022-09-02T00:35:44;101128.00;;;18.94;nan
36980;BME280;22891;50.562;7.272;2022-09-02T00:38:11;101136.00;;;18.99;nan
36980;BME280;22891;50.562;7.272;2022-09-02T00:40:37;101129.00;;;18.95;nan
36980;BME280;22891;50.562;7.272;2022-09-02T00:43:07;101128.00;;;19.02;nan
36980;BME280;22891;50.562;7.272;2022-09-02T00:45:34;101127.00;;;18.98;nan
36980;BME280;22891;50.562;7.272;2022-09-02T00:48:01;101129.00;;;18.96;nan
36980;BME280;22891;50.562;7.272;2022-09-02T00:50:31;101125.00;;;18.98;nan
36980;BME280;22891;50.562;7.272;2022-09-02T00:53:03;101127.00;;;18.98;nan
36980;BME280;22891;50.562;7.272;2022-09-02T00:55:34;101130.00;;;18.94;nan
36980;BME280;22891;50.562;7.272;2022-09-02T00:58:07;101120.00;;;18.91;nan
36980;BME280;22891;50.562;7.272;2022-09-02T01:00:38;101121.00;;;18.81;nan
36980;BME280;22891;50.562;7.272;2022-09-02T01:03:10;101123.00;;;18.78;nan
36980;BME280;22891;50.562;7.272;2022-09-02T01:05:42;101120.00;;;18.68;nan
36980;BME280;22891;50.562;7.272;2022-09-02T01:08:20;101127.00;;;18.69;nan
36980;BME280;22891;50.562;7.272;2022-09-02T01:10:48;101129.00;;;18.70;nan
36980;BME280;22891;50.562;7.272;2022-09-02T01:13:18;101117.00;;;18.63;nan
36980;BME280;22891;50.562;7.272;2022-09-02T01:15:48;101122.00;;;18.63;nan
36980;BME280;22891;50.562;7.272;2022-09-02T01:18:23;101125.00;;;18.65;nan
36980;BME280;22891;50.562;7.272;2022-09-02T01:20:50;101117.00;;;18.66;nan
36980;BME280;22891;50.562;7.272;2022-09-02T01:23:17;101120.00;;;18.58;nan
36980;BME280;22891;50.562;7.272;2022-09-02T01:25:44;101122.00;;;18.64;nan
36980;BME280;22891;50.562;7.272;2022-09-02T01:28:14;101113.00;;;18.62;nan
36980;BME280;22891;50.562;7.272;2022-09-02T01:30:45;101118.00;;;18.64;nan
36980;BME280;22891;50.562;7.272;2022-09-02T01:33:11;101112.00;;;18.57;nan
36980;BME280;22891;50.562;7.272;2022-09-02T01:35:37;101101.00;;;18.53;nan
36980;BME280;22891;50.562;7.272;2022-09-02T01:38:05;101109.00;;;18.54;nan
36980;BME280;22891;50.562;7.272;2022-09-02T01:40:31;101108.00;;;18.64;nan
36980;BME280;22891;50.562;7.272;2022-09-02T01:43:01;101112.00;;;18.57;nan
36980;BME280;22891;50.562;7.272;2022-09-02T01:45:28;101111.00;;;18.55;nan
36980;BME280;22891;50.562;7.272;2022-09-02T01:47:54;101113.00;;;18.47;nan
36980;BME280;22891;50.562;7.272;2022-09-02T01:50:20;101105.00;;;18.50;nan
36980;BME280;22891;50.562;7.272;2022-09-02T01:52:46;101109.00;;;18.48;nan
36980;BME280;22891;50.562;7.272;2022-09-02T01:55:12;101101.00;;;18.57;nan
36980;BME280;22891;50.562;7.272;2022-09-02T01:57:38;101108.00;;;18.32;nan
36980;BME280;22891;50.562;7.272;2022-09-02T02:00:07;101102.00;;;18.23;nan
36980;BME280;22891;50.562;7.272;2022-09-02T02:02:33;101091.00;;;18.25;nan
36980;BME280;22891;50.562;7.272;2022-09-02T02:04:59;101102.00;;;18.28;nan
36980;BME280;22891;50.562;7.272;2022-09-02T02:07:25;101108.00;;;18.22;nan
36980;BME280;22891;50.562;7.272;2022-09-02T02:09:51;101102.00;;;18.17;nan
36980;BME280;22891;50.562;7.272;2022-09-02T02:12:18;101102.00;;;18.09;nan
36980;BME280;22891;50.562;7.272;2022-09-02T02:14:44;101099.00;;;18.09;nan
36980;BME280;22891;50.562;7.272;2022-09-02T02:17:10;101111.00;;;18.01;nan
36980;BME280;22891;50.562;7.272;2022-09-02T02:19:36;101103.00;;;18.09;nan
36980;BME280;22891;50.562;7.272;2022-09-02T02:22:03;101114.00;;;18.03;nan
36980;BME280;22891;50.562;7.272;2022-09-02T02:24:29;101110.00;;;18.07;nan
36980;BME280;22891;50.562;7.272;2022-09-02T02:26:55;101112.00;;;18.02;nan
36980;BME280;22891;50.562;7.272;2022-09-02T02:29:21;101120.00;;;17.97;nan
36980;BME280;22891;50.562;7.272;2022-09-02T02:31:48;101118.00;;;17.99;nan
36980;BME280;22891;50.562;7.272;2022-09-02T02:34:16;101119.00;;;18.03;nan
36980;BME280;22891;50.562;7.272;2022-09-02T02:36:44;101114.00;;;17.90;nan
36980;BME280;22891;50.562;7.272;2022-09-02T02:39:11;101111.00;;;17.82;nan
36980;BME280;22891;50.562;7.272;2022-09-02T02:41:38;101120.00;;;17.76;nan
36980;BME280;22891;50.562;7.272;2022-09-02T02:44:06;101120.00;;;17.75;nan
36980;BME280;22891;50.562;7.272;2022-09-02T02:46:32;101119.00;;;17.64;nan
36980;BME280;22891;50.562;7.272;2022-09-02T02:49:01;101115.00;;;17.36;nan
36980;BME280;22891;50.562;7.272;2022-09-02T02:51:27;101116.00;;;17.17;nan
36980;BME280;22891;50.562;7.272;2022-09-02T02:53:53;101119.00;;;17.22;nan
36980;BME280;22891;50.562;7.272;2022-09-02T02:56:19;101121.00;;;17.24;nan
36980;BME280;22891;50.562;7.272;2022-09-02T02:58:45;101123.00;;;17.32;nan
36980;BME280;22891;50.562;7.272;2022-09-02T03:01:11;101122.00;;;17.37;nan
36980;BME280;22891;50.562;7.272;2022-09-02T03:03:37;101127.00;;;17.18;nan
36980;BME280;22891;50.562;7.272;2022-09-02T03:06:03;101129.00;;;17.35;nan
36980;BME280;22891;50.562;7.272;2022-09-02T03:08:30;101123.00;;;17.35;nan
36980;BME280;22891;50.562;7.272;2022-09-02T03:10:57;101124.00;;;17.32;nan
36980;BME280;22891;50.562;7.272;2022-09-02T03:13:24;101123.00;;;17.05;nan
36980;BME280;22891;50.562;7.272;2022-09-02T03:15:51;101117.00;;;16.91;nan
36980;BME280;22891;50.562;7.272;2022-09-02T03:18:18;101117.00;;;16.73;nan
36980;BME280;22891;50.562;7.272;2022-09-02T03:20:44;101113.00;;;16.74;nan
36980;BME280;22891;50.562;7.272;2022-09-02T03:23:10;101115.00;;;16.62;nan
36980;BME280;22891;50.562;7.272;2022-09-02T03:25:42;101116.00;;;16.55;nan
36980;BME280;22891;50.562;7.272;2022-09-02T03:28:09;101117.00;;;16.54;nan
36980;BME280;22891;50.562;7.272;2022-09-02T03:30:38;101112.00;;;16.61;nan
36980;BME280;22891;50.562;7.272;2022-09-02T03:33:04;101114.00;;;16.60;nan
36980;BME280;22891;50.562;7.272;2022-09-02T03:35:32;101115.00;;;16.37;nan
36980;BME280;22891;50.562;7.272;2022-09-02T03:37:59;101121.00;;;16.40;nan
36980;BME280;22891;50.562;7.272;2022-09-02T03:40:26;101114.00;;;16.28;nan
36980;BME280;22891;50.562;7.272;2022-09-02T03:42:54;101122.00;;;16.06;nan
36980;BME280;22891;50.562;7.272;2022-09-02T03:45:21;101116.00;;;16.02;nan
36980;BME280;22891;50.562;7.272;2022-09-02T03:47:49;101113.00;;;16.04;nan
36980;BME280;22891;50.562;7.272;2022-09-02T03:50:35;101109.00;;;15.98;nan
36980;BME280;22891;50.562;7.272;2022-09-02T03:53:03;101102.00;;;15.86;nan
36980;BME280;22891;50.562;7.272;2022-09-02T03:55:30;101102.00;;;15.71;nan
36980;BME280;22891;50.562;7.272;2022-09-02T03:57:57;101101.00;;;15.77;nan
36980;BME280;22891;50.562;7.272;2022-09-02T04:00:25;101101.00;;;15.84;nan
36980;BME280;22891;50.562;7.272;2022-09-02T04:02:57;101093.00;;;15.94;nan
36980;BME280;22891;50.562;7.272;2022-09-02T04:05:23;101101.00;;;15.71;nan
36980;BME280;22891;50.562;7.272;2022-09-02T04:07:49;101108.00;;;15.72;nan
36980;BME280;22891;50.562;7.272;2022-09-02T04:10:18;101096.00;;;15.75;nan
36980;BME280;22891;50.562;7.272;2022-09-02T04:12:45;101100.00;;;15.78;nan
36980;BME280;22891;50.562;7.272;2022-09-02T04:15:11;101096.00;;;15.81;nan
36980;BME280;22891;50.562;7.272;2022-09-02T04:17:39;101096.00;;;15.62;nan
36980;BME280;22891;50.562;7.272;2022-09-02T04:20:09;101096.00;;;15.59;nan
36980;BME280;22891;50.562;7.272;2022-09-02T04:22:35;101101.00;;;15.68;nan
36980;BME280;22891;50.562;7.272;2022-09-02T04:25:01;101093.00;;;15.56;nan
36980;BME280;22891;50.562;7.272;2022-09-02T04:27:27;101088.00;;;15.40;nan
36980;BME280;22891;50.562;7.272;2022-09-02T04:29:54;101100.00;;;15.51;nan
36980;BME280;22891;50.562;7.272;2022-09-02T04:32:20;101090.00;;;15.48;nan
36980;BME280;22891;50.562;7.272;2022-09-02T04:34:47;101099.00;;;15.44;nan
36980;BME280;22891;50.562;7.272;2022-09-02T04:37:14;101099.00;;;15.34;nan
36980;BME280;22891;50.562;7.272;2022-09-02T04:39:40;101096.00;;;15.32;nan
36980;BME280;22891;50.562;7.272;2022-09-02T04:42:06;101101.00;;;15.21;nan
36980;BME280;22891;50.562;7.272;2022-09-02T04:44:33;101094.00;;;15.25;nan
36980;BME280;22891;50.562;7.272;2022-09-02T04:46:58;101097.00;;;15.26;nan
36980;BME280;22891;50.562;7.272;2022-09-02T04:49:25;101097.00;;;15.25;nan
36980;BME280;22891;50.562;7.272;2022-09-02T04:51:52;101106.00;;;15.25;nan
36980;BME280;22891;50.562;7.272;2022-09-02T04:54:18;101101.00;;;15.16;nan
36980;BME280;22891;50.562;7.272;2022-09-02T04:56:44;101102.00;;;14.98;nan
36980;BME280;22891;50.562;7.272;2022-09-02T04:59:10;101097.00;;;14.92;nan
36980;BME280;22891;50.562;7.272;2022-09-02T05:01:36;101092.00;;;14.95;nan
36980;BME280;22891;50.562;7.272;2022-09-02T05:04:14;101096.00;;;14.94;nan
36980;BME280;22891;50.562;7.272;2022-09-02T05:06:41;101089.00;;;15.06;nan
36980;BME280;22891;50.562;7.272;2022-09-02T05:09:06;101090.00;;;15.50;nan
36980;BME280;22891;50.562;7.272;2022-09-02T05:11:34;101088.00;;;16.44;nan
36980;BME280;22891;50.562;7.272;2022-09-02T05:14:03;101096.00;;;17.28;nan
36980;BME280;22891;50.562;7.272;2022-09-02T05:16:33;101102.00;;;17.73;nan
36980;BME280;22891;50.562;7.272;2022-09-02T05:19:03;101105.00;;;17.98;nan
36980;BME280;22891;50.562;7.272;2022-09-02T05:21:29;101112.00;;;18.02;nan
36980;BME280;22891;50.562;7.272;2022-09-02T05:23:57;101113.00;;;18.12;nan
36980;BME280;22891;50.562;7.272;2022-09-02T05:26:23;101111.00;;;18.15;nan
36980;BME280;22891;50.562;7.272;2022-09-02T05:28:49;101117.00;;;17.15;nan
36980;BME280;22891;50.562;7.272;2022-09-02T05:31:18;101111.00;;;17.37;nan
36980;BME280;22891;50.562;7.272;2022-09-02T05:33:45;101116.00;;;17.30;nan
36980;BME280;22891;50.562;7.272;2022-09-02T05:36:16;101109.00;;;17.30;nan
36980;BME280;22891;50.562;7.272;2022-09-02T05:38:43;101112.00;;;17.57;nan
36980;BME280;22891;50.562;7.272;2022-09-02T05:41:18;101104.00;;;17.88;nan
36980;BME280;22891;50.562;7.272;2022-09-02T05:43:48;101114.00;;;18.00;nan
36980;BME280;22891;50.562;7.272;2022-09-02T05:46:16;101106.00;;;17.99;nan
36980;BME280;22891;50.562;7.272;2022-09-02T05:48:45;101109.00;;;18.16;nan
36980;BME280;22891;50.562;7.272;2022-09-02T05:51:30;101115.00;;;18.20;nan
36980;BME280;22891;50.562;7.272;2022-09-02T05:53:58;101116.00;;;18.08;nan
36980;BME280;22891;50.562;7.272;2022-09-02T05:56:26;101110.00;;;17.91;nan
36980;BME280;22891;50.562;7.272;2022-09-02T05:58:54;101107.00;;;18.29;nan
36980;BME280;22891;50.562;7.272;2022-09-02T06:01:21;101105.00;;;18.04;nan
36980;BME280;22891;50.562;7.272;2022-09-02T06:03:47;101106.00;;;17.84;nan
36980;BME280;22891;50.562;7.272;2022-09-02T06:06:14;101107.00;;;18.09;nan
36980;BME280;22891;50.562;7.272;2022-09-02T06:08:40;101105.00;;;18.65;nan
36980;BME280;22891;50.562;7.272;2022-09-02T06:11:09;101102.00;;;18.75;nan
36980;BME280;22891;50.562;7.272;2022-09-02T06:13:37;101105.00;;;18.83;nan
36980;BME280;22891;50.562;7.272;2022-09-02T06:16:04;101105.00;;;19.30;nan
36980;BME280;22891;50.562;7.272;2022-09-02T06:18:36;101115.00;;;19.26;nan
36980;BME280;22891;50.562;7.272;2022-09-02T06:21:04;101110.00;;;18.78;nan
36980;BME280;22891;50.562;7.272;2022-09-02T06:23:33;101107.00;;;18.76;nan
36980;BME280;22891;50.562;7.272;2022-09-02T06:26:00;101107.00;;;18.45;nan
36980;BME280;22891;50.562;7.272;2022-09-02T06:28:26;101110.00;;;18.62;nan
36980;BME280;22891;50.562;7.272;2022-09-02T06:30:53;101114.00;;;19.06;nan
36980;BME280;22891;50.562;7.272;2022-09-02T06:33:19;101111.00;;;19.66;nan
36980;BME280;22891;50.562;7.272;2022-09-02T06:35:45;101112.00;;;19.21;nan
36980;BME280;22891;50.562;7.272;2022-09-02T06:38:12;101108.00;;;19.25;nan
36980;BME280;22891;50.562;7.272;2022-09-02T06:40:50;101105.00;;;19.31;nan
36980;BME280;22891;50.562;7.272;2022-09-02T06:43:17;101109.00;;;19.58;nan
36980;BME280;22891;50.562;7.272;2022-09-02T06:45:46;101117.00;;;19.71;nan
36980;BME280;22891;50.562;7.272;2022-09-02T06:48:30;101111.00;;;19.11;nan
36980;BME280;22891;50.562;7.272;2022-09-02T06:50:56;101109.00;;;19.37;nan
36980;BME280;22891;50.562;7.272;2022-09-02T06:53:22;101108.00;;;19.83;nan
36980;BME280;22891;50.562;7.272;2022-09-02T06:55:49;101108.00;;;20.14;nan
36980;BME280;22891;50.562;7.272;2022-09-02T06:58:15;101115.00;;;20.22;nan
36980;BME280;22891;50.562;7.272;2022-09-02T07:00:42;101114.00;;;20.55;nan
36980;BME280;22891;50.562;7.272;2022-09-02T07:03:09;101099.00;;;20.72;nan
36980;BME280;22891;50.562;7.272;2022-09-02T07:06:10;101098.00;;;20.79;nan
36980;BME280;22891;50.562;7.272;2022-09-02T07:08:40;101094.00;;;21.24;nan
36980;BME280;22891;50.562;7.272;2022-09-02T07:11:14;101099.00;;;21.45;nan
36980;BME280;22891;50.562;7.272;2022-09-02T07:13:40;101095.00;;;21.50;nan
36980;BME280;22891;50.562;7.272;2022-09-02T07:16:06;101088.00;;;21.59;nan
36980;BME280;22891;50.562;7.272;2022-09-02T07:18:33;101082.00;;;21.98;nan
36980;BME280;22891;50.562;7.272;2022-09-02T07:21:00;101082.00;;;21.82;nan
36980;BME280;22891;50.562;7.272;2022-09-02T07:23:26;101077.00;;;22.03;nan
36980;BME280;22891;50.562;7.272;2022-09-02T07:25:52;101073.00;;;22.02;nan
36980;BME280;22891;50.562;7.272;2022-09-02T07:28:19;101084.00;;;22.81;nan
36980;BME280;22891;50.562;7.272;2022-09-02T07:30:45;101079.00;;;22.87;nan
36980;BME280;22891;50.562;7.272;2022-09-02T07:33:12;101081.00;;;23.08;nan
36980;BME280;22891;50.562;7.272;2022-09-02T07:35:43;101079.00;;;23.28;nan
36980;BME280;22891;50.562;7.272;2022-09-02T07:38:10;101078.00;;;23.39;nan
36980;BME280;22891;50.562;7.272;2022-09-02T07:40:38;101073.00;;;23.72;nan
36980;BME280;22891;50.562;7.272;2022-09-02T07:43:06;101079.00;;;24.08;nan
36980;BME280;22891;50.562;7.272;2022-09-02T07:45:33;101069.00;;;23.86;nan
36980;BME280;22891;50.562;7.272;2022-09-02T07:47:59;101070.00;;;24.62;nan
36980;BME280;22891;50.562;7.272;2022-09-02T07:50:26;101071.00;;;24.02;nan
36980;BME280;22891;50.562;7.272;2022-09-02T07:52:56;101072.00;;;24.35;nan
36980;BME280;22891;50.562;7.272;2022-09-02T07:55:24;101072.00;;;24.60;nan
36980;BME280;22891;50.562;7.272;2022-09-02T07:57:51;101072.00;;;24.60;nan
36980;BME280;22891;50.562;7.272;2022-09-02T08:00:19;101067.00;;;24.78;nan
36980;BME280;22891;50.562;7.272;2022-09-02T08:02:48;101058.00;;;25.32;nan
36980;BME280;22891;50.562;7.272;2022-09-02T08:05:14;101055.00;;;25.28;nan
36980;BME280;22891;50.562;7.272;2022-09-02T08:07:41;101057.00;;;26.47;nan
36980;BME280;22891;50.562;7.272;2022-09-02T08:10:09;101052.00;;;26.64;nan
36980;BME280;22891;50.562;7.272;2022-09-02T08:12:39;101050.00;;;25.87;nan
36980;BME280;22891;50.562;7.272;2022-09-02T08:15:06;101056.00;;;25.83;nan
36980;BME280;22891;50.562;7.272;2022-09-02T08:17:31;101050.00;;;26.23;nan
36980;BME280;22891;50.562;7.272;2022-09-02T08:19:58;101060.00;;;26.23;nan
36980;BME280;22891;50.562;7.272;2022-09-02T08:22:25;101057.00;;;26.06;nan
36980;BME280;22891;50.562;7.272;2022-09-02T08:24:51;101052.00;;;26.10;nan
36980;BME280;22891;50.562;7.272;2022-09-02T08:27:17;101051.00;;;26.54;nan
36980;BME280;22891;50.562;7.272;2022-09-02T08:29:42;101055.00;;;27.38;nan
36980;BME280;22891;50.562;7.272;2022-09-02T08:32:08;101044.00;;;28.49;nan
36980;BME280;22891;50.562;7.272;2022-09-02T08:34:35;101050.00;;;28.35;nan
36980;BME280;22891;50.562;7.272;2022-09-02T08:37:00;101053.00;;;27.21;nan
36980;BME280;22891;50.562;7.272;2022-09-02T08:39:26;101046.00;;;27.86;nan
36980;BME280;22891;50.562;7.272;2022-09-02T08:42:08;101046.00;;;27.63;nan
36980;BME280;22891;50.562;7.272;2022-09-02T08:44:39;101043.00;;;27.16;nan
36980;BME280;22891;50.562;7.272;2022-09-02T08:47:10;101048.00;;;28.14;nan
36980;BME280;22891;50.562;7.272;2022-09-02T08:49:43;101046.00;;;28.88;nan
36980;BME280;22891;50.562;7.272;2022-09-02T08:52:16;101034.00;;;28.38;nan
36980;BME280;22891;50.562;7.272;2022-09-02T08:54:51;101039.00;;;28.23;nan
36980;BME280;22891;50.562;7.272;2022-09-02T08:57:20;101041.00;;;28.26;nan
36980;BME280;22891;50.562;7.272;2022-09-02T08:59:56;101030.00;;;27.84;nan
36980;BME280;22891;50.562;7.272;2022-09-02T09:02:47;101030.00;;;28.79;nan
36980;BME280;22891;50.562;7.272;2022-09-02T09:18:06;101022.00;;;29.67;nan
36980;BME280;22891;50.562;7.272;2022-09-02T09:20:37;101026.00;;;29.44;nan
36980;BME280;22891;50.562;7.272;2022-09-02T09:23:39;101021.00;;;28.32;nan
36980;BME280;22891;50.562;7.272;2022-09-02T09:26:13;101014.00;;;28.83;nan
36980;BME280;22891;50.562;7.272;2022-09-02T09:28:43;101013.00;;;28.81;nan
36980;BME280;22891;50.562;7.272;2022-09-02T09:31:12;101012.00;;;28.91;nan
36980;BME280;22891;50.562;7.272;2022-09-02T09:33:54;101012.00;;;28.47;nan
36980;BME280;22891;50.562;7.272;2022-09-02T09:36:45;101010.00;;;29.96;nan
36980;BME280;22891;50.562;7.272;2022-09-02T09:39:31;101017.00;;;30.40;nan
36980;BME280;22891;50.562;7.272;2022-09-02T09:42:12;101011.00;;;29.40;nan
36980;BME280;22891;50.562;7.272;2022-09-02T09:44:45;101008.00;;;29.57;nan
36980;BME280;22891;50.562;7.272;2022-09-02T09:47:19;101004.00;;;29.41;nan
36980;BME280;22891;50.562;7.272;2022-09-02T09:49:49;101006.00;;;30.13;nan
36980;BME280;22891;50.562;7.272;2022-09-02T09:52:25;100994.00;;;30.21;nan
36980;BME280;22891;50.562;7.272;2022-09-02T09:55:13;100994.00;;;30.09;nan
36980;BME280;22891;50.562;7.272;2022-09-02T09:57:44;100993.00;;;29.67;nan
36980;BME280;22891;50.562;7.272;2022-09-02T10:03:06;100982.00;;;29.87;nan
36980;BME280;22891;50.562;7.272;2022-09-02T10:05:38;100990.00;;;29.75;nan
36980;BME280;22891;50.562;7.272;2022-09-02T10:08:23;100990.00;;;29.92;nan
36980;BME280;22891;50.562;7.272;2022-09-02T10:11:04;100983.00;;;29.67;nan
36980;BME280;22891;50.562;7.272;2022-09-02T10:13:35;100976.00;;;29.92;nan
36980;BME280;22891;50.562;7.272;2022-09-02T10:30:07;100972.00;;;29.24;nan
36980;BME280;22891;50.562;7.272;2022-09-02T10:34:02;100959.00;;;29.31;nan
36980;BME280;22891;50.562;7.272;2022-09-02T10:40:49;100947.00;;;29.44;nan
36980;BME280;22891;50.562;7.272;2022-09-02T10:49:21;100945.00;;;30.64;nan
36980;BME280;22891;50.562;7.272;2022-09-02T10:53:22;100929.00;;;29.63;nan
36980;BME280;22891;50.562;7.272;2022-09-02T11:03:11;100938.00;;;30.74;nan
36980;BME280;22891;50.562;7.272;2022-09-02T11:09:35;100919.00;;;29.63;nan
36980;BME280;22891;50.562;7.272;2022-09-02T11:12:31;100911.00;;;30.38;nan
36980;BME280;22891;50.562;7.272;2022-09-02T11:15:23;100918.00;;;30.52;nan
36980;BME280;22891;50.562;7.272;2022-09-02T11:18:24;100903.00;;;30.01;nan
36980;BME280;22891;50.562;7.272;2022-09-02T11:21:39;100909.00;;;31.10;nan
36980;BME280;22891;50.562;7.272;2022-09-02T11:24:32;100890.00;;;32.03;nan
36980;BME280;22891;50.562;7.272;2022-09-02T11:29:41;100889.00;;;31.01;nan
36980;BME280;22891;50.562;7.272;2022-09-02T11:35:07;100890.00;;;29.24;nan
36980;BME280;22891;50.562;7.272;2022-09-02T11:37:46;100880.00;;;29.93;nan
36980;BME280;22891;50.562;7.272;2022-09-02T11:41:25;100872.00;;;31.44;nan
36980;BME280;22891;50.562;7.272;2022-09-02T11:44:10;100884.00;;;30.81;nan
36980;BME280;22891;50.562;7.272;2022-09-02T11:47:07;100884.00;;;30.81;nan
36980;BME280;22891;50.562;7.272;2022-09-02T11:54:11;100871.00;;;28.74;nan
36980;BME280;22891;50.562;7.272;2022-09-02T11:56:43;100868.00;;;28.42;nan
36980;BME280;22891;50.562;7.272;2022-09-02T12:00:10;100857.00;;;29.01;nan
36980;BME280;22891;50.562;7.272;2022-09-02T12:02:42;100865.00;;;28.97;nan
36980;BME280;22891;50.562;7.272;2022-09-02T12:05:45;100856.00;;;29.61;nan
36980;BME280;22891;50.562;7.272;2022-09-02T12:15:01;100851.00;;;29.30;nan
36980;BME280;22891;50.562;7.272;2022-09-02T12:17:37;100848.00;;;29.67;nan
36980;BME280;22891;50.562;7.272;2022-09-02T12:20:10;100836.00;;;29.12;nan
36980;BME280;22891;50.562;7.272;2022-09-02T12:22:39;100849.00;;;30.40;nan
36980;BME280;22891;50.562;7.272;2022-09-02T12:31:55;100847.00;;;30.39;nan
36980;BME280;22891;50.562;7.272;2022-09-02T12:37:48;100841.00;;;29.27;nan
36980;BME280;22891;50.562;7.272;2022-09-02T12:40:22;100830.00;;;29.51;nan
36980;BME280;22891;50.562;7.272;2022-09-02T12:42:50;100838.00;;;28.98;nan
36980;BME280;22891;50.562;7.272;2022-09-02T12:45:24;100839.00;;;28.61;nan
36980;BME280;22891;50.562;7.272;2022-09-02T12:48:06;100836.00;;;28.75;nan
36980;BME280;22891;50.562;7.272;2022-09-02T12:50:55;100829.00;;;29.46;nan
36980;BME280;22891;50.562;7.272;2022-09-02T12:55:21;100833.00;;;30.10;nan
36980;BME280;22891;50.562;7.272;2022-09-02T12:57:50;100816.00;;;30.03;nan
36980;BME280;22891;50.562;7.272;2022-09-02T13:00:32;100812.00;;;30.31;nan
36980;BME280;22891;50.562;7.272;2022-09-02T13:14:01;100806.00;;;28.56;nan
36980;BME280;22891;50.562;7.272;2022-09-02T13:16:46;100805.00;;;28.95;nan
36980;BME280;22891;50.562;7.272;2022-09-02T13:19:45;100789.00;;;29.01;nan
36980;BME280;22891;50.562;7.272;2022-09-02T13:34:30;100777.00;;;28.77;nan
36980;BME280;22891;50.562;7.272;2022-09-02T13:36:56;100767.00;;;28.75;nan
36980;BME280;22891;50.562;7.272;2022-09-02T13:39:26;100768.00;;;28.77;nan
36980;BME280;22891;50.562;7.272;2022-09-02T13:41:53;100762.00;;;28.17;nan
36980;BME280;22891;50.562;7.272;2022-09-02T13:44:22;100767.00;;;27.42;nan
36980;BME280;22891;50.562;7.272;2022-09-02T13:46:52;100763.00;;;27.84;nan
36980;BME280;22891;50.562;7.272;2022-09-02T13:49:25;100758.00;;;27.85;nan
36980;BME280;22891;50.562;7.272;2022-09-02T13:51:54;100750.00;;;28.04;nan
36980;BME280;22891;50.562;7.272;2022-09-02T13:54:34;100754.00;;;28.57;nan
36980;BME280;22891;50.562;7.272;2022-09-02T13:57:16;100755.00;;;28.59;nan
36980;BME280;22891;50.562;7.272;2022-09-02T13:59:50;100757.00;;;27.84;nan
36980;BME280;22891;50.562;7.272;2022-09-02T14:02:37;100736.00;;;28.01;nan
36980;BME280;22891;50.562;7.272;2022-09-02T14:06:03;100748.00;;;27.64;nan
36980;BME280;22891;50.562;7.272;2022-09-02T14:08:32;100729.00;;;27.47;nan
36980;BME280;22891;50.562;7.272;2022-09-02T14:10:59;100735.00;;;28.30;nan
36980;BME280;22891;50.562;7.272;2022-09-02T14:13:27;100734.00;;;28.06;nan
36980;BME280;22891;50.562;7.272;2022-09-02T14:16:29;100729.00;;;28.25;nan
36980;BME280;22891;50.562;7.272;2022-09-02T14:22:00;100715.00;;;27.30;nan
36980;BME280;22891;50.562;7.272;2022-09-02T14:24:36;100718.00;;;27.50;nan
36980;BME280;22891;50.562;7.272;2022-09-02T14:27:18;100720.00;;;27.38;nan
36980;BME280;22891;50.562;7.272;2022-09-02T14:29:46;100706.00;;;27.71;nan
36980;BME280;22891;50.562;7.272;2022-09-02T14:32:21;100701.00;;;27.86;nan
36980;BME280;22891;50.562;7.272;2022-09-02T14:34:48;100704.00;;;28.41;nan
36980;BME280;22891;50.562;7.272;2022-09-02T14:37:26;100692.00;;;28.50;nan
36980;BME280;22891;50.562;7.272;2022-09-02T14:40:09;100701.00;;;28.39;nan
36980;BME280;22891;50.562;7.272;2022-09-02T14:42:46;100691.00;;;28.48;nan
36980;BME280;22891;50.562;7.272;2022-09-02T14:45:13;100701.00;;;28.33;nan
36980;BME280;22891;50.562;7.272;2022-09-02T14:47:39;100705.00;;;27.85;nan
36980;BME280;22891;50.562;7.272;2022-09-02T14:50:11;100689.00;;;27.80;nan
36980;BME280;22891;50.562;7.272;2022-09-02T14:52:49;100693.00;;;27.15;nan
36980;BME280;22891;50.562;7.272;2022-09-02T14:55:44;100690.00;;;27.43;nan
36980;BME280;22891;50.562;7.272;2022-09-02T14:58:10;100698.00;;;27.66;nan
36980;BME280;22891;50.562;7.272;2022-09-02T15:00:36;100692.00;;;27.27;nan
36980;BME280;22891;50.562;7.272;2022-09-02T15:03:04;100685.00;;;27.63;nan
36980;BME280;22891;50.562;7.272;2022-09-02T15:05:32;100688.00;;;27.94;nan
36980;BME280;22891;50.562;7.272;2022-09-02T15:07:57;100691.00;;;28.00;nan
36980;BME280;22891;50.562;7.272;2022-09-02T15:10:23;100680.00;;;27.55;nan
36980;BME280;22891;50.562;7.272;2022-09-02T15:12:54;100680.00;;;27.80;nan
36980;BME280;22891;50.562;7.272;2022-09-02T15:15:19;100676.00;;;28.07;nan
36980;BME280;22891;50.562;7.272;2022-09-02T15:17:45;100682.00;;;27.84;nan
36980;BME280;22891;50.562;7.272;2022-09-02T15:20:11;100668.00;;;27.49;nan